createdAt,value
2022-08-03T00:01:49.183Z,98312.41
2022-08-03T00:04:16.905Z,98319.00
2022-08-03T00:06:44.579Z,98315.47
2022-08-03T00:09:12.590Z,98314.25
2022-08-03T00:11:40.195Z,98311.50
2022-08-03T00:14:09.070Z,98323.25
2022-08-03T00:16:36.713Z,98326.06
2022-08-03T00:19:04.645Z,98329.97
2022-08-03T00:21:32.086Z,98322.91
2022-08-03T00:24:00.331Z,98324.09
2022-08-03T00:26:27.740Z,98330.69
2022-08-03T00:28:55.324Z,98329.41
2022-08-03T00:31:32.217Z,98334.69
2022-08-03T00:34:10.310Z,98326.41
2022-08-03T00:36:40.297Z,98319.44
2022-08-03T00:39:07.733Z,98329.91
2022-08-03T00:41:35.193Z,98326.41
2022-08-03T00:44:02.648Z,98334.97
2022-08-03T00:46:30.065Z,98334.94
2022-08-03T00:48:57.628Z,98332.91
2022-08-03T00:51:25.759Z,98339.84
2022-08-03T00:53:53.234Z,98342.59
2022-08-03T00:56:20.773Z,98345.34
2022-08-03T00:58:48.317Z,98350.38
2022-08-03T01:01:15.867Z,98350.72
2022-08-03T01:03:45.280Z,98345.94
2022-08-03T01:06:41.282Z,98354.00
2022-08-03T01:09:21.130Z,98345.78
2022-08-03T01:12:00.643Z,98357.19
2022-08-03T01:14:49.423Z,98348.47
2022-08-03T01:17:37.217Z,98349.66
2022-08-03T01:20:09.769Z,98356.56
2022-08-03T01:22:58.661Z,98356.97
2022-08-03T01:25:54.731Z,98356.69
2022-08-03T01:28:49.425Z,98357.34
2022-08-03T01:31:22.808Z,98357.13
2022-08-03T01:33:58.151Z,98357.66
2022-08-03T01:36:34.181Z,98355.78
2022-08-03T01:39:09.679Z,98363.53
2022-08-03T01:41:44.800Z,98368.09
2022-08-03T01:44:30.155Z,98362.31
2022-08-03T01:47:00.803Z,98360.91
2022-08-03T01:49:30.682Z,98368.44
2022-08-03T01:52:04.858Z,98376.19
2022-08-03T01:54:38.417Z,98365.06
2022-08-03T01:57:07.400Z,98365.97
2022-08-03T01:59:37.123Z,98367.00
2022-08-03T02:02:15.485Z,98370.06
2022-08-03T02:04:57.914Z,98369.06
2022-08-03T02:07:27.265Z,98377.13
2022-08-03T02:09:56.183Z,98374.03
2022-08-03T02:12:29.020Z,98387.53
2022-08-03T02:15:18.313Z,98378.16
2022-08-03T02:17:47.988Z,98387.88
2022-08-03T02:20:16.593Z,98379.22
2022-08-03T02:22:45.743Z,98391.88
2022-08-03T02:25:14.967Z,98382.41
2022-08-03T02:27:55.589Z,98386.56
2022-08-03T02:30:30.556Z,98391.38
2022-08-03T02:32:59.770Z,98385.78
2022-08-03T02:35:29.981Z,98387.69
2022-08-03T02:38:02.784Z,98388.97
2022-08-03T02:40:31.714Z,98395.06
2022-08-03T02:43:15.876Z,98395.34
2022-08-03T02:45:46.246Z,98390.28
2022-08-03T02:48:18.194Z,98393.09
2022-08-03T02:50:47.870Z,98398.16
2022-08-03T02:53:18.042Z,98393.41
2022-08-03T02:55:48.078Z,98388.22
2022-08-03T02:58:18.971Z,98399.59
2022-08-03T03:00:47.484Z,98397.13
2022-08-03T03:03:16.173Z,98394.06
2022-08-03T03:05:52.939Z,98391.25
2022-08-03T03:08:28.608Z,98387.56
2022-08-03T03:11:00.059Z,98397.25
2022-08-03T03:13:32.701Z,98398.19
2022-08-03T03:16:06.426Z,98399.56
2022-08-03T03:18:35.394Z,98388.22
2022-08-03T03:21:04.394Z,98395.91
2022-08-03T03:23:35.917Z,98400.59
2022-08-03T03:26:04.439Z,98397.75
2022-08-03T03:28:33.239Z,98391.44
2022-08-03T03:31:01.321Z,98398.31
2022-08-03T03:33:28.878Z,98391.88
2022-08-03T03:35:57.977Z,98403.19
2022-08-03T03:38:25.577Z,98404.72
2022-08-03T03:40:53.205Z,98395.19
2022-08-03T03:43:20.780Z,98400.41
2022-08-03T03:45:48.495Z,98390.34
2022-08-03T03:48:16.606Z,98402.03
2022-08-03T03:50:44.573Z,98403.00
2022-08-03T03:53:13.979Z,98411.00
2022-08-03T03:55:59.317Z,98399.69
2022-08-03T03:58:32.234Z,98414.03
2022-08-03T04:01:00.769Z,98406.50
2022-08-03T04:03:28.787Z,98405.56
2022-08-03T04:06:15.570Z,98406.44
2022-08-03T04:09:01.546Z,98410.25
2022-08-03T04:11:48.042Z,98419.00
2022-08-03T04:14:21.162Z,98420.84
2022-08-03T04:16:58.294Z,98417.50
2022-08-03T04:19:32.785Z,98417.00
2022-08-03T04:22:03.854Z,98408.78
2022-08-03T04:24:35.587Z,98414.13
2022-08-03T04:27:07.085Z,98406.97
2022-08-03T04:29:38.512Z,98414.38
2022-08-03T04:32:12.842Z,98408.66
2022-08-03T04:34:41.082Z,98406.91
2022-08-03T04:37:15.216Z,98418.44
2022-08-03T04:39:44.872Z,98407.75
2022-08-03T04:42:14.396Z,98412.41
2022-08-03T04:44:45.549Z,98409.69
2022-08-03T04:47:13.013Z,98404.31
2022-08-03T04:49:40.993Z,98416.94
2022-08-03T04:52:10.391Z,98410.56
2022-08-03T04:54:50.295Z,98416.81
2022-08-03T04:57:23.045Z,98419.44
2022-08-03T05:00:01.362Z,98421.16
2022-08-03T05:02:33.805Z,98412.50
2022-08-03T05:05:01.363Z,98410.47
2022-08-03T05:07:35.459Z,98406.16
2022-08-03T05:10:14.760Z,98415.03
2022-08-03T05:12:45.863Z,98414.09
2022-08-03T05:15:13.527Z,98412.13
2022-08-03T05:17:41.086Z,98409.22
2022-08-03T05:20:09.129Z,98422.03
2022-08-03T05:22:36.624Z,98414.16
2022-08-03T05:25:04.405Z,98416.84
2022-08-03T05:27:31.910Z,98413.00
2022-08-03T05:30:30.360Z,98412.25
2022-08-03T05:32:46.865Z,98416.06
2022-08-03T05:35:57.301Z,98414.91
2022-08-03T05:38:03.689Z,98419.03
2022-08-03T05:40:31.440Z,98415.44
2022-08-03T05:42:59.323Z,98410.19
2022-08-03T05:45:28.528Z,98404.41
2022-08-03T05:47:56.317Z,98400.38
2022-08-03T05:50:24.057Z,98405.69
2022-08-03T05:52:51.479Z,98399.88
2022-08-03T05:55:19.326Z,98396.84
2022-08-03T05:57:47.390Z,98414.34
2022-08-03T06:00:17.394Z,98401.97
2022-08-03T06:02:46.558Z,98399.88
2022-08-03T06:05:14.108Z,98404.88
2022-08-03T06:07:41.669Z,98393.09
2022-08-03T06:10:36.658Z,98394.47
2022-08-03T06:12:57.146Z,98401.72
2022-08-03T06:15:24.845Z,98399.63
2022-08-03T06:17:52.733Z,98401.66
2022-08-03T06:20:21.179Z,98401.34
2022-08-03T06:22:51.379Z,98411.22
2022-08-03T06:25:28.091Z,98398.47
2022-08-03T06:27:55.479Z,98397.66
2022-08-03T06:30:23.003Z,98400.84
2022-08-03T06:32:51.695Z,98386.53
2022-08-03T06:35:20.383Z,98384.09
2022-08-03T06:37:50.130Z,98388.84
2022-08-03T06:40:24.318Z,98389.78
2022-08-03T06:42:52.126Z,98375.59
2022-08-03T06:45:19.633Z,98379.81
2022-08-03T06:47:47.065Z,98385.50
2022-08-03T06:50:16.877Z,98374.38
2022-08-03T06:52:45.638Z,98377.94
2022-08-03T06:55:13.141Z,98377.97
2022-08-03T06:57:40.558Z,98383.19
2022-08-03T07:00:12.187Z,98389.53
2022-08-03T07:02:40.254Z,98391.16
2022-08-03T07:05:09.733Z,98381.22
2022-08-03T07:07:37.499Z,98385.91
2022-08-03T07:10:06.488Z,98391.50
2022-08-03T07:12:34.988Z,98381.00
2022-08-03T07:15:04.177Z,98394.53
2022-08-03T07:17:34.927Z,98393.03
2022-08-03T07:20:05.243Z,98391.81
2022-08-03T07:22:33.035Z,98385.50
2022-08-03T07:25:00.803Z,98387.31
2022-08-03T07:27:29.575Z,98387.41
2022-08-03T07:30:00.031Z,98382.56
2022-08-03T07:32:28.845Z,98377.00
2022-08-03T07:35:00.490Z,98377.53
2022-08-03T07:37:29.431Z,98384.56
2022-08-03T07:39:57.088Z,98380.56
2022-08-03T07:42:24.574Z,98387.19
2022-08-03T07:44:51.953Z,98386.09
2022-08-03T07:47:25.329Z,98392.59
2022-08-03T07:50:02.578Z,98376.56
2022-08-03T07:52:48.460Z,98373.47
2022-08-03T07:55:17.359Z,98367.41
2022-08-03T07:57:45.164Z,98367.38
2022-08-03T08:00:18.656Z,98375.34
2022-08-03T08:02:46.648Z,98369.81
2022-08-03T08:05:14.177Z,98365.59
2022-08-03T08:07:41.709Z,98366.09
2022-08-03T08:10:10.443Z,98379.16
2022-08-03T08:12:41.023Z,98378.00
2022-08-03T08:15:09.974Z,98387.34
2022-08-03T08:17:55.844Z,98379.75
2022-08-03T08:20:31.797Z,98374.09
2022-08-03T08:23:02.733Z,98368.47
2022-08-03T08:25:31.978Z,98376.28
2022-08-03T08:28:29.785Z,98374.84
2022-08-03T08:30:51.986Z,98362.97
2022-08-03T08:33:22.606Z,98363.88
2022-08-03T08:35:50.400Z,98367.16
2022-08-03T08:38:17.771Z,98363.84
2022-08-03T08:40:46.039Z,98367.78
2022-08-03T08:43:13.521Z,98364.75
2022-08-03T08:45:43.051Z,98371.50
2022-08-03T08:48:13.406Z,98377.38
2022-08-03T08:50:41.198Z,98364.91
2022-08-03T08:53:18.325Z,98381.97
2022-08-03T08:55:59.206Z,98378.47
2022-08-03T08:58:37.085Z,98376.94
2022-08-03T09:01:04.976Z,98380.44
2022-08-03T09:03:34.656Z,98379.44
2022-08-03T09:06:02.701Z,98376.63
2022-08-03T09:08:32.023Z,98378.78
2022-08-03T09:10:59.927Z,98377.78
2022-08-03T09:13:27.537Z,98371.28
2022-08-03T09:16:11.190Z,98383.06
2022-08-03T09:18:39.265Z,98377.16
2022-08-03T09:21:34.128Z,98382.03
2022-08-03T09:24:05.685Z,98377.44
2022-08-03T09:26:36.697Z,98381.00
2022-08-03T09:29:13.236Z,98369.53
2022-08-03T09:31:47.148Z,98380.97
2022-08-03T09:34:16.147Z,98381.03
2022-08-03T09:36:50.866Z,98364.16
2022-08-03T09:39:40.467Z,98370.69
2022-08-03T09:42:14.973Z,98365.44
2022-08-03T09:44:45.477Z,98369.50
2022-08-03T09:47:16.183Z,98374.06
2022-08-03T09:49:57.805Z,98372.13
2022-08-03T09:52:52.314Z,98373.91
2022-08-03T09:56:34.480Z,98363.91
2022-08-03T09:58:14.585Z,98362.72
2022-08-03T10:01:04.448Z,98368.22
2022-08-03T10:04:02.703Z,98366.06
2022-08-03T10:06:28.952Z,98364.28
2022-08-03T10:09:11.638Z,98367.84
2022-08-03T10:11:42.028Z,98363.66
2022-08-03T10:14:19.493Z,98362.75
2022-08-03T10:16:48.815Z,98367.59
2022-08-03T10:19:17.005Z,98358.94
2022-08-03T10:21:50.872Z,98378.22
2022-08-03T10:24:24.898Z,98374.72
2022-08-03T10:26:54.320Z,98371.41
2022-08-03T10:29:25.478Z,98376.44
2022-08-03T10:31:58.432Z,98367.50
2022-08-03T10:34:35.415Z,98370.09
2022-08-03T10:37:08.683Z,98370.50
2022-08-03T10:39:37.039Z,98357.59
2022-08-03T10:42:06.098Z,98359.91
2022-08-03T10:44:42.994Z,98342.75
2022-08-03T10:47:11.597Z,98352.81
2022-08-03T10:49:39.697Z,98353.22
2022-08-03T10:52:13.114Z,98346.88
2022-08-03T10:55:03.244Z,98342.72
2022-08-03T10:57:58.496Z,98354.53
2022-08-03T11:00:30.495Z,98331.38
2022-08-03T11:03:14.396Z,98335.38
2022-08-03T11:05:47.296Z,98339.88
2022-08-03T11:08:37.094Z,98340.06
2022-08-03T11:11:20.292Z,98344.81
2022-08-03T11:14:05.721Z,98339.53
2022-08-03T11:16:39.105Z,98340.06
2022-08-03T11:19:11.210Z,98331.16
2022-08-03T11:21:51.317Z,98343.59
2022-08-03T11:24:37.092Z,98339.56
2022-08-03T11:27:19.957Z,98336.47
2022-08-03T11:30:07.454Z,98337.50
2022-08-03T11:32:38.346Z,98342.94
2022-08-03T11:35:26.238Z,98343.94
2022-08-03T11:38:04.396Z,98339.13
2022-08-03T11:40:48.840Z,98346.66
2022-08-03T11:43:22.538Z,98344.38
2022-08-03T11:46:03.346Z,98335.38
2022-08-03T11:48:46.291Z,98343.06
2022-08-03T11:51:25.678Z,98350.34
2022-08-03T11:53:58.250Z,98333.34
2022-08-03T11:56:26.250Z,98339.47
2022-08-03T11:59:15.277Z,98339.53
2022-08-03T12:01:46.291Z,98328.28
2022-08-03T12:04:13.759Z,98328.16
2022-08-03T12:06:56.323Z,98329.72
2022-08-03T12:09:23.713Z,98322.63
2022-08-03T12:11:59.383Z,98335.59
2022-08-03T12:14:49.049Z,98329.59
2022-08-03T12:17:17.704Z,98330.13
2022-08-03T12:19:45.515Z,98316.84
2022-08-03T12:22:13.813Z,98330.56
2022-08-03T12:24:46.782Z,98328.66
2022-08-03T12:27:25.017Z,98334.66
2022-08-03T12:29:58.582Z,98336.19
2022-08-03T12:32:28.594Z,98335.31
2022-08-03T12:35:02.043Z,98326.72
2022-08-03T12:37:32.275Z,98328.69
2022-08-03T12:40:09.357Z,98326.41
2022-08-03T12:42:40.179Z,98328.56
2022-08-03T12:45:21.285Z,98321.41
2022-08-03T12:47:56.163Z,98323.72
2022-08-03T12:50:31.454Z,98315.50
2022-08-03T12:53:01.215Z,98327.13
2022-08-03T12:55:56.645Z,98310.78
2022-08-03T12:58:43.720Z,98325.09
2022-08-03T13:01:13.900Z,98319.88
2022-08-03T13:03:50.361Z,98320.19
2022-08-03T13:06:25.463Z,98325.72
2022-08-03T13:09:04.805Z,98314.41
2022-08-03T13:11:57.982Z,98318.63
2022-08-03T13:14:20.632Z,98323.56
2022-08-03T13:16:49.667Z,98332.34
2022-08-03T13:19:21.145Z,98325.59
2022-08-03T13:21:53.440Z,98319.16
2022-08-03T13:24:32.305Z,98326.06
2022-08-03T13:27:00.989Z,98335.16
2022-08-03T13:29:48.430Z,98328.41
2022-08-03T13:32:15.958Z,98324.81
2022-08-03T13:34:43.496Z,98331.44
2022-08-03T13:37:12.428Z,98326.19
2022-08-03T13:39:58.055Z,98337.47
2022-08-03T13:42:35.467Z,98335.59
2022-08-03T13:45:04.338Z,98339.00
2022-08-03T13:47:34.372Z,98329.31
2022-08-03T13:50:03.068Z,98328.69
2022-08-03T13:52:36.801Z,98343.97
2022-08-03T13:55:06.352Z,98352.63
2022-08-03T13:58:05.826Z,98344.03
2022-08-03T14:00:28.585Z,98336.63
2022-08-03T14:03:12.588Z,98348.31
2022-08-03T14:05:42.209Z,98335.41
2022-08-03T14:08:10.252Z,98334.63
2022-08-03T14:10:40.488Z,98333.84
2022-08-03T14:13:08.804Z,98338.78
2022-08-03T14:15:37.294Z,98334.63
2022-08-03T14:18:15.850Z,98335.09
2022-08-03T14:20:56.346Z,98334.19
2022-08-03T14:23:25.246Z,98337.88
2022-08-03T14:25:53.157Z,98333.59
2022-08-03T14:28:24.712Z,98339.25
2022-08-03T14:30:53.297Z,98330.16
2022-08-03T14:33:21.174Z,98339.28
2022-08-03T14:35:49.164Z,98342.34
2022-08-03T14:38:17.441Z,98336.66
2022-08-03T14:40:45.132Z,98332.03
2022-08-03T14:43:12.839Z,98336.81
2022-08-03T14:45:40.872Z,98342.03
2022-08-03T14:50:12.592Z,98345.09
2022-08-03T14:50:57.880Z,98344.19
2022-08-03T14:53:25.366Z,98338.47
2022-08-03T14:55:53.683Z,98341.09
2022-08-03T14:58:22.806Z,98350.97
2022-08-03T15:00:51.977Z,98344.19
2022-08-03T15:03:24.003Z,98348.66
2022-08-03T15:05:56.416Z,98323.56
2022-08-03T15:08:25.311Z,98344.66
2022-08-03T15:10:54.497Z,98341.56
2022-08-03T15:13:22.474Z,98339.72
2022-08-03T15:15:50.232Z,98333.25
2022-08-03T15:18:17.794Z,98334.94
2022-08-03T15:20:46.690Z,98333.84
2022-08-03T15:23:16.291Z,98333.09
2022-08-03T15:26:29.454Z,98340.94
2022-08-03T15:28:32.797Z,98342.19
2022-08-03T15:31:01.370Z,98338.78
2022-08-03T15:33:29.763Z,98331.69
2022-08-03T15:35:57.518Z,98343.06
2022-08-03T15:38:26.232Z,98350.88
2022-08-03T15:40:55.590Z,98354.84
2022-08-03T15:43:24.146Z,98356.28
2022-08-03T15:46:12.803Z,98359.78
2022-08-03T15:48:40.753Z,98359.00
2022-08-03T15:51:09.259Z,98360.34
2022-08-03T15:53:37.764Z,98356.50
2022-08-03T15:56:11.318Z,98365.09
2022-08-03T15:59:09.483Z,98354.44
2022-08-03T16:01:30.077Z,98365.94
2022-08-03T16:03:57.695Z,98366.38
2022-08-03T16:06:34.660Z,98373.88
2022-08-03T16:09:23.899Z,98380.78
2022-08-03T16:11:56.251Z,98381.53
2022-08-03T16:14:32.281Z,98385.44
2022-08-03T16:17:04.277Z,98392.50
2022-08-03T16:19:31.794Z,98385.22
2022-08-03T16:21:59.356Z,98387.56
2022-08-03T16:24:28.618Z,98382.03
2022-08-03T16:26:57.050Z,98393.22
2022-08-03T16:29:24.506Z,98387.31
2022-08-03T16:31:52.692Z,98392.84
2022-08-03T16:34:20.679Z,98387.31
2022-08-03T16:36:48.250Z,98392.31
2022-08-03T16:39:15.959Z,98395.22
2022-08-03T16:41:54.029Z,98389.94
2022-08-03T16:44:30.909Z,98405.44
2022-08-03T16:46:59.721Z,98401.06
2022-08-03T16:49:54.658Z,98398.97
2022-08-03T16:52:16.757Z,98404.75
2022-08-03T16:54:52.735Z,98408.63
2022-08-03T16:57:55.680Z,98405.63
2022-08-03T17:00:34.283Z,98404.84
2022-08-03T17:03:04.365Z,98417.56
2022-08-03T17:05:46.971Z,98406.88
2022-08-03T17:08:16.384Z,98412.94
2022-08-03T17:10:53.982Z,98401.59
2022-08-03T17:13:22.880Z,98402.94
2022-08-03T17:16:01.326Z,98410.09
2022-08-03T17:18:35.649Z,98411.66
2022-08-03T17:21:07.999Z,98406.72
2022-08-03T17:23:57.625Z,98406.81
2022-08-03T17:26:30.595Z,98408.69
2022-08-03T17:29:12.932Z,98413.44
2022-08-03T17:31:48.944Z,98413.69
2022-08-03T17:34:18.720Z,98415.78
2022-08-03T17:37:04.096Z,98409.03
2022-08-03T17:39:57.738Z,98421.84
2022-08-03T17:42:30.324Z,98418.31
2022-08-03T17:45:02.119Z,98414.22
2022-08-03T17:47:42.133Z,98418.53
2022-08-03T17:50:24.539Z,98423.03
2022-08-03T17:53:06.854Z,98431.91
2022-08-03T17:55:55.232Z,98422.91
2022-08-03T17:58:55.193Z,98424.13
2022-08-03T18:02:00.769Z,98420.69
2022-08-03T18:04:41.302Z,98424.41
2022-08-03T18:07:12.625Z,98421.34
2022-08-03T18:10:03.699Z,98424.66
2022-08-03T18:12:51.890Z,98424.44
2022-08-03T18:15:30.441Z,98426.50
2022-08-03T18:18:10.377Z,98428.16
2022-08-03T18:20:42.008Z,98426.03
2022-08-03T18:23:20.651Z,98427.81
2022-08-03T18:26:05.637Z,98440.22
2022-08-03T18:28:35.862Z,98441.00
2022-08-03T18:31:05.993Z,98430.38
2022-08-03T18:34:20.037Z,98438.78
2022-08-03T18:36:30.127Z,98419.50
2022-08-03T18:39:02.990Z,98430.47
2022-08-03T18:41:34.624Z,98433.50
2022-08-03T18:44:37.243Z,98435.72
2022-08-03T18:47:50.726Z,98429.34
2022-08-03T18:50:30.576Z,98436.69
2022-08-03T18:53:03.072Z,98432.47
2022-08-03T18:55:33.751Z,98429.28
2022-08-03T19:01:57.996Z,98440.16
2022-08-03T19:04:25.300Z,98444.06
2022-08-03T19:07:02.848Z,98436.66
2022-08-03T19:09:49.580Z,98451.72
2022-08-03T19:12:30.602Z,98450.38
2022-08-03T19:15:05.942Z,98459.81
2022-08-03T19:17:53.626Z,98457.13
2022-08-03T19:20:25.060Z,98453.22
2022-08-03T19:22:54.739Z,98466.91
2022-08-03T19:25:34.534Z,98456.88
2022-08-03T19:28:07.353Z,98462.31
2022-08-03T19:33:29.941Z,98459.13
2022-08-03T19:35:58.358Z,98461.88
2022-08-03T19:41:18.023Z,98446.78
2022-08-03T19:44:02.098Z,98465.75
2022-08-03T19:46:37.833Z,98453.78
2022-08-03T19:49:14.596Z,98457.38
2022-08-03T19:51:59.041Z,98453.53
2022-08-03T19:54:52.768Z,98451.09
2022-08-03T19:57:25.006Z,98456.28
2022-08-03T19:59:54.402Z,98460.38
2022-08-03T20:02:27.125Z,98455.28
2022-08-03T20:04:59.579Z,98458.41
2022-08-03T20:07:48.437Z,98457.63
2022-08-03T20:10:18.131Z,98459.94
2022-08-03T20:12:47.581Z,98456.16
2022-08-03T20:15:18.111Z,98455.78
2022-08-03T20:17:54.882Z,98465.50
2022-08-03T20:20:29.454Z,98462.53
2022-08-03T20:22:59.513Z,98466.75
2022-08-03T20:25:38.089Z,98467.38
2022-08-03T20:28:15.073Z,98462.16
2022-08-03T20:30:47.187Z,98466.00
2022-08-03T20:33:18.818Z,98462.81
2022-08-03T20:35:49.679Z,98465.00
2022-08-03T20:38:20.379Z,98461.72
2022-08-03T20:40:55.021Z,98465.84
2022-08-03T20:43:26.764Z,98471.78
2022-08-03T20:46:00.077Z,98478.47
2022-08-03T20:48:43.475Z,98480.16
2022-08-03T20:51:20.151Z,98475.56
2022-08-03T20:54:09.659Z,98475.56
2022-08-03T20:56:53.726Z,98480.63
2022-08-03T20:59:21.686Z,98479.84
2022-08-03T21:01:49.185Z,98473.94
2022-08-03T21:04:20.947Z,98469.16
2022-08-03T21:06:57.438Z,98477.09
2022-08-03T21:09:33.478Z,98483.75
2022-08-03T21:12:13.165Z,98485.59
2022-08-03T21:13:02.596Z,98462.91
2022-08-03T21:13:10.126Z,98425.94
2022-08-03T21:13:10.907Z,98468.94
2022-08-03T21:14:52.540Z,98470.00
2022-08-03T21:17:39.216Z,98484.22
2022-08-03T21:20:12.421Z,98483.03
2022-08-03T21:22:44.087Z,98487.84
2022-08-03T21:25:15.034Z,98487.72
2022-08-03T21:27:42.551Z,98492.56
2022-08-03T21:30:11.446Z,98498.41
2022-08-03T21:32:40.681Z,98490.28
2022-08-03T21:35:12.943Z,98498.41
2022-08-03T21:37:41.885Z,98502.13
2022-08-03T21:40:12.482Z,98487.69
2022-08-03T21:42:41.703Z,98505.72
2022-08-03T21:45:16.875Z,98498.94
2022-08-03T21:47:46.046Z,98507.31
2022-08-03T21:50:13.967Z,98498.44
2022-08-03T21:52:45.308Z,98498.09
2022-08-03T21:55:20.332Z,98497.47
2022-08-03T21:57:53.316Z,98495.50
2022-08-03T22:00:23.411Z,98505.38
2022-08-03T22:02:57.166Z,98507.03
2022-08-03T22:05:28.874Z,98501.69
2022-08-03T22:08:13.112Z,98514.53
2022-08-03T22:10:43.438Z,98518.91
2022-08-03T22:13:13.283Z,98511.34
2022-08-03T22:15:41.263Z,98515.72
2022-08-03T22:18:09.599Z,98514.16
2022-08-03T22:20:37.260Z,98506.03
2022-08-03T22:23:06.850Z,98517.34
2022-08-03T22:25:39.110Z,98518.06
2022-08-03T22:28:10.309Z,98505.19
2022-08-03T22:30:39.302Z,98518.13
2022-08-03T22:33:11.208Z,98515.72
2022-08-03T22:35:47.953Z,98517.63
2022-08-03T22:38:18.311Z,98517.31
2022-08-03T22:40:49.094Z,98514.88
2022-08-03T22:43:17.290Z,98507.50
2022-08-03T22:46:10.138Z,98516.84
2022-08-03T22:48:41.029Z,98512.97
2022-08-03T22:51:09.735Z,98514.94
2022-08-03T22:53:38.745Z,98505.91
2022-08-03T22:56:07.085Z,98515.28
2022-08-03T22:58:34.551Z,98488.84
2022-08-03T23:01:08.723Z,98513.94
2022-08-03T23:04:01.221Z,98513.16
2022-08-03T23:06:35.980Z,98506.06
2022-08-03T23:09:10.098Z,98512.31
2022-08-03T23:11:46.153Z,98504.59
2022-08-03T23:14:16.888Z,98505.38
2022-08-03T23:16:46.136Z,98509.34
2022-08-03T23:19:17.149Z,98510.53
2022-08-03T23:22:02.827Z,98515.44
2022-08-03T23:24:35.990Z,98505.69
2022-08-03T23:27:05.765Z,98511.19
2022-08-03T23:29:38.769Z,98513.53
2022-08-03T23:32:07.256Z,98516.38
2022-08-03T23:34:53.492Z,98517.50
2022-08-03T23:37:21.268Z,98496.53
2022-08-03T23:39:49.351Z,98511.66
2022-08-03T23:42:19.521Z,98510.88
2022-08-03T23:44:47.388Z,98509.34
2022-08-03T23:47:15.539Z,98507.38
2022-08-03T23:49:43.191Z,98511.28
2022-08-03T23:52:21.822Z,98511.13
2022-08-03T23:55:15.156Z,98513.88
2022-08-03T23:58:01.751Z,98515.88
